| time (UTC) | temp F | wind direction | speed MPH | gust MPH | rain 1hr in | rain 24hr in | rain mn in | humidity % | barometer mb |
| 20260901103113 | 65 | 283 | 2.0 | 6.0 | 0.00 | 0.18 | 0.14 | 85 | 1021.3 |
| 20260901102111 | 65 | 310 | 2.0 | 4.0 | 0.00 | 0.18 | 0.14 | 85 | 1021.3 |
| 20260901101108 | 65 | 273 | 2.0 | 7.0 | 0.00 | 0.18 | 0.14 | 85 | 1021.3 |
| 20260901100106 | 65 | 265 | 3.0 | 6.0 | 0.00 | 0.18 | 0.14 | 86 | 1021.2 |
| 20260901095103 | 65 | 261 | 4.0 | 9.0 | 0.00 | 0.18 | 0.14 | 86 | 1021.3 |
| 20260901094100 | 64 | 223 | 2.0 | 8.0 | 0.00 | 0.18 | 0.14 | 89 | 1021.2 |
| 20260901093058 | 0 | 0.0 | 0.0 | 0.00 | 0.18 | 0.14 | 1021.2 | ||
| 20260901092055 | 62 | 270 | 5.0 | 7.0 | 0.01 | 0.18 | 0.14 | 92 | 1021.0 |
| 20260901091053 | 62 | 229 | 3.0 | 6.0 | 0.06 | 0.18 | 0.14 | 92 | 1021.1 |
| 20260901090050 | 62 | 253 | 5.0 | 8.0 | 0.06 | 0.18 | 0.14 | 92 | 1021.1 |
| 20260901085048 | 61 | 222 | 4.0 | 7.0 | 0.08 | 0.18 | 0.14 | 92 | 1021.0 |
| 20260901084045 | 61 | 217 | 2.0 | 4.0 | 0.08 | 0.18 | 0.14 | 93 | 1021.1 |
| 20260901083042 | 61 | 183 | 2.0 | 4.0 | 0.09 | 0.18 | 0.14 | 93 | 1020.9 |
| 20260901082040 | 61 | 216 | 3.0 | 7.0 | 0.11 | 0.17 | 0.13 | 92 | 1020.8 |
| 20260901081037 | 61 | 272 | 2.0 | 6.0 | 0.08 | 0.12 | 0.08 | 92 | 1020.9 |
| 20260901080034 | 61 | 268 | 2.0 | 4.0 | 0.08 | 0.12 | 0.08 | 92 | 1020.7 |
| 20260901075032 | 61 | 225 | 5.0 | 8.0 | 0.06 | 0.09 | 0.06 | 92 | 1020.7 |
| 20260901074029 | 61 | 240 | 5.0 | 9.0 | 0.06 | 0.09 | 0.06 | 92 | 1020.6 |
| 20260901073027 | 61 | 232 | 5.0 | 11.0 | 0.05 | 0.08 | 0.05 | 91 | 1020.6 |
| 20260901072024 | 61 | 237 | 4.0 | 11.0 | 0.02 | 0.06 | 0.02 | 91 | 1020.4 |
| 20260901071022 | 61 | 214 | 4.0 | 8.0 | 0.00 | 0.04 | 0.00 | 90 | 1020.3 |
| 20260901070019 | 61 | 201 | 4.0 | 9.0 | 0.00 | 0.04 | 0.00 | 90 | 1020.3 |
| 20260901065016 | 61 | 222 | 4.0 | 8.0 | 0.00 | 0.04 | 0.00 | 90 | 1020.2 |
| 20260901064114 | 61 | 253 | 3.0 | 6.0 | 0.00 | 0.04 | 0.00 | 90 | 1020.0 |
| 20260901063111 | 61 | 213 | 4.0 | 8.0 | 0.00 | 0.04 | 0.00 | 90 | 1020.0 |
| 20260901062109 | 61 | 263 | 4.0 | 8.0 | 0.00 | 0.04 | 0.00 | 90 | 1019.7 |
| 20260901061106 | 60 | 236 | 5.0 | 9.0 | 0.00 | 0.04 | 0.00 | 91 | 1019.8 |
| 20260901060104 | 60 | 198 | 5.0 | 8.0 | 0.00 | 0.04 | 0.00 | 91 | 1019.8 |
| 20260901055101 | 60 | 221 | 5.0 | 8.0 | 0.00 | 0.04 | 0.00 | 91 | 1019.7 |
| 20260901054058 | 60 | 203 | 4.0 | 9.0 | 0.00 | 0.04 | 0.00 | 91 | 1019.7 |
| 20260901053056 | 60 | 244 | 4.0 | 8.0 | 0.00 | 0.04 | 0.00 | 91 | 1019.7 |
| 20260901052053 | 60 | 228 | 4.0 | 8.0 | 0.00 | 0.04 | 0.00 | 91 | 1019.5 |
| 20260901051051 | 60 | 238 | 5.0 | 8.0 | 0.00 | 0.04 | 0.00 | 91 | 1019.5 |
| 20260901050048 | 60 | 227 | 5.0 | 8.0 | 0.00 | 0.04 | 0.00 | 91 | 1019.4 |
| 20260901045046 | 60 | 232 | 4.0 | 7.0 | 0.00 | 0.04 | 0.00 | 90 | 1019.3 |
| 20260901044043 | 60 | 236 | 4.0 | 8.0 | 0.00 | 0.04 | 0.00 | 90 | 1019.1 |
| 20260901043040 | 60 | 212 | 4.0 | 9.0 | 0.00 | 0.04 | 0.00 | 90 | 1019.1 |
| 20260901042038 | 60 | 225 | 5.0 | 7.0 | 0.00 | 0.04 | 0.00 | 89 | 1019.0 |
| 20260901041035 | 60 | 237 | 4.0 | 7.0 | 0.00 | 0.04 | 0.00 | 89 | 1019.0 |
| 20260901040033 | 60 | 210 | 4.0 | 7.0 | 0.00 | 0.04 | 0.00 | 89 | 1018.9 |
| 20260901035100 | 60 | 233 | 4.0 | 8.0 | 0.00 | 0.04 | 0.00 | 88 | 1018.9 |
| 20260901034058 | 61 | 212 | 4.0 | 7.0 | 0.00 | 0.04 | 0.00 | 88 | 1018.8 |
| 20260901033055 | 61 | 235 | 2.0 | 7.0 | 0.00 | 0.04 | 0.00 | 87 | 1018.7 |
| 20260901032052 | 61 | 254 | 2.0 | 7.0 | 0.00 | 0.04 | 0.00 | 87 | 1018.8 |
| 20260901031050 | 61 | 229 | 3.0 | 7.0 | 0.00 | 0.04 | 0.00 | 87 | 1018.7 |
| 20260901030047 | 61 | 277 | 1.0 | 4.0 | 0.00 | 0.04 | 0.00 | 87 | 1018.7 |
| 20260901025044 | 61 | 234 | 2.0 | 4.0 | 0.00 | 0.04 | 0.00 | 86 | 1018.7 |
| 20260901024041 | 62 | 227 | 1.0 | 4.0 | 0.00 | 0.04 | 0.00 | 86 | 1018.6 |
| 20260901023039 | 62 | 295 | 2.0 | 6.0 | 0.00 | 0.05 | 0.00 | 86 | 1018.5 |
| 20260901022036 | 62 | 243 | 2.0 | 7.0 | 0.00 | 0.07 | 0.00 | 85 | 1018.5 |
| 20260901021034 | 62 | 260 | 2.0 | 6.0 | 0.00 | 0.07 | 0.00 | 85 | 1018.5 |
| 20260901020031 | 62 | 254 | 3.0 | 8.0 | 0.00 | 0.07 | 0.00 | 84 | 1018.3 |
| 20260901015028 | 62 | 231 | 4.0 | 8.0 | 0.00 | 0.07 | 0.00 | 84 | 1018.4 |
| 20260901014026 | 62 | 274 | 4.0 | 11.0 | 0.00 | 0.07 | 0.00 | 84 | 1018.3 |
| 20260901013023 | 62 | 232 | 4.0 | 11.0 | 0.00 | 0.07 | 0.00 | 84 | 1018.2 |
| 20260901012021 | 62 | 223 | 5.0 | 11.0 | 0.00 | 0.07 | 0.00 | 84 | 1018.2 |
| 20260901011018 | 62 | 231 | 4.0 | 7.0 | 0.00 | 0.07 | 0.00 | 84 | 1018.1 |
| 20260901010016 | 62 | 254 | 5.0 | 9.0 | 0.00 | 0.07 | 0.00 | 84 | 1018.1 |
| 20260901005113 | 61 | 243 | 4.0 | 7.0 | 0.00 | 0.07 | 0.00 | 84 | 1018.2 |
| 20260901004111 | 62 | 213 | 4.0 | 8.0 | 0.00 | 0.07 | 0.00 | 83 | 1018.2 |
| 20260901003108 | 62 | 230 | 6.0 | 9.0 | 0.00 | 0.07 | 0.00 | 83 | 1018.3 |
| 20260901002105 | 62 | 250 | 3.0 | 6.0 | 0.00 | 0.07 | 0.00 | 82 | 1018.2 |
| 20260901001103 | 62 | 238 | 5.0 | 8.0 | 0.00 | 0.07 | 0.00 | 81 | 1018.3 |
| 20260901000100 | 62 | 259 | 2.0 | 7.0 | 0.00 | 0.07 | 0.00 | 80 | 1018.4 |
| 20260831235058 | 63 | 257 | 3.0 | 8.0 | 0.00 | 0.07 | 0.00 | 79 | 1018.3 |
| 20260831234055 | 63 | 293 | 1.0 | 4.0 | 0.00 | 0.07 | 0.00 | 79 | 1018.3 |
| 20260831233053 | 63 | 198 | 3.0 | 9.0 | 0.00 | 0.07 | 0.00 | 78 | 1018.2 |
| 20260831232050 | 63 | 221 | 4.0 | 8.0 | 0.00 | 0.07 | 0.00 | 78 | 1018.0 |
| 20260831231047 | 63 | 219 | 6.0 | 9.0 | 0.00 | 0.07 | 0.00 | 78 | 1018.0 |
| 20260831230045 | 62 | 215 | 5.0 | 11.0 | 0.00 | 0.07 | 0.00 | 78 | 1018.0 |
| 20260831225042 | 62 | 217 | 3.0 | 8.0 | 0.00 | 0.07 | 0.00 | 77 | 1018.0 |
| 20260831224040 | 63 | 256 | 3.0 | 8.0 | 0.00 | 0.07 | 0.00 | 77 | 1017.9 |
| 20260831223037 | 63 | 217 | 4.0 | 8.0 | 0.00 | 0.07 | 0.00 | 77 | 1018.0 |
| 20260831222034 | 63 | 234 | 4.0 | 6.0 | 0.00 | 0.07 | 0.00 | 77 | 1017.9 |
| 20260831221032 | 63 | 258 | 4.0 | 7.0 | 0.00 | 0.07 | 0.00 | 76 | 1017.8 |
| 20260831220029 | 63 | 219 | 5.0 | 11.0 | 0.00 | 0.07 | 0.00 | 76 | 1017.8 |
| 20260831215026 | 63 | 234 | 5.0 | 9.0 | 0.00 | 0.07 | 0.07 | 75 | 1017.7 |
| 20260831214024 | 63 | 248 | 5.0 | 9.0 | 0.00 | 0.07 | 0.07 | 75 | 1017.7 |
| 20260831213021 | 63 | 231 | 6.0 | 11.0 | 0.00 | 0.07 | 0.07 | 75 | 1017.6 |
| 20260831212019 | 63 | 251 | 5.0 | 9.0 | 0.00 | 0.07 | 0.07 | 75 | 1017.6 |
| 20260831211016 | 63 | 225 | 5.0 | 8.0 | 0.00 | 0.07 | 0.07 | 75 | 1017.5 |
| 20260831210114 | 63 | 239 | 4.0 | 9.0 | 0.00 | 0.07 | 0.07 | 75 | 1017.4 |
| 20260831205111 | 64 | 242 | 5.0 | 9.0 | 0.00 | 0.07 | 0.07 | 75 | 1017.3 |
| 20260831204109 | 64 | 225 | 4.0 | 7.0 | 0.00 | 0.07 | 0.07 | 74 | 1017.2 |
| 20260831203106 | 64 | 195 | 4.0 | 8.0 | 0.00 | 0.07 | 0.07 | 75 | 1017.0 |
| 20260831202103 | 64 | 256 | 3.0 | 7.0 | 0.00 | 0.07 | 0.07 | 74 | 1016.9 |
| 20260831201100 | 64 | 225 | 3.0 | 6.0 | 0.00 | 0.07 | 0.07 | 74 | 1016.8 |
| 20260831200058 | 64 | 265 | 3.0 | 6.0 | 0.00 | 0.07 | 0.07 | 74 | 1016.7 |
| 20260831195055 | 64 | 231 | 5.0 | 11.0 | 0.00 | 0.07 | 0.07 | 73 | 1016.8 |
| 20260831194053 | 65 | 248 | 5.0 | 11.0 | 0.00 | 0.07 | 0.07 | 73 | 1016.5 |
| 20260831193050 | 65 | 270 | 7.0 | 14.0 | 0.00 | 0.07 | 0.07 | 72 | 1016.4 |
| 20260831192047 | 65 | 276 | 6.0 | 14.0 | 0.00 | 0.07 | 0.07 | 72 | 1016.4 |
| 20260831191045 | 65 | 253 | 7.0 | 11.0 | 0.00 | 0.07 | 0.07 | 70 | 1016.3 |
| 20260831190042 | 0 | 0.0 | 0.0 | 0.00 | 0.07 | 0.07 | 1016.2 | ||
| 20260831185040 | 65 | 315 | 4.0 | 8.0 | 0.00 | 0.07 | 0.07 | 69 | 1016.1 |
| 20260831184037 | 65 | 295 | 6.0 | 11.0 | 0.00 | 0.07 | 0.07 | 69 | 1015.8 |
| 20260831183035 | 66 | 270 | 7.0 | 16.0 | 0.00 | 0.07 | 0.07 | 69 | 1015.5 |
| 20260831182032 | 66 | 241 | 7.0 | 13.0 | 0.00 | 0.07 | 0.07 | 69 | 1015.4 |
| 20260831181030 | 66 | 287 | 8.0 | 14.0 | 0.00 | 0.07 | 0.07 | 68 | 1015.2 |
| 20260831180027 | 66 | 271 | 7.0 | 14.0 | 0.00 | 0.07 | 0.07 | 67 | 1015.0 |
| 20260831175024 | 67 | 272 | 9.0 | 15.0 | 0.00 | 0.07 | 0.07 | 66 | 1014.9 |
| 20260831174022 | 67 | 272 | 9.0 | 15.0 | 0.00 | 0.07 | 0.07 | 65 | 1014.8 |
| 20260831173019 | 68 | 252 | 9.0 | 15.0 | 0.00 | 0.07 | 0.07 | 64 | 1014.6 |
| 20260831172017 | 68 | 258 | 11.0 | 20.0 | 0.00 | 0.07 | 0.07 | 63 | 1014.5 |
| 20260831171114 | 67 | 260 | 8.0 | 13.0 | 0.00 | 0.07 | 0.07 | 66 | 1014.4 |
| 20260831170112 | 67 | 259 | 8.0 | 15.0 | 0.00 | 0.07 | 0.07 | 65 | 1014.2 |
| 20260831165109 | 68 | 276 | 11.0 | 24.0 | 0.00 | 0.07 | 0.07 | 64 | 1014.0 |
| 20260831164106 | 68 | 249 | 6.0 | 15.0 | 0.00 | 0.07 | 0.07 | 63 | 1014.0 |
| 20260831163104 | 68 | 255 | 7.0 | 17.0 | 0.00 | 0.07 | 0.07 | 63 | 1013.8 |
| 20260831162101 | 68 | 243 | 12.0 | 21.0 | 0.00 | 0.07 | 0.07 | 62 | 1013.8 |
| 20260831161059 | 69 | 269 | 11.0 | 27.0 | 0.00 | 0.07 | 0.07 | 62 | 1013.8 |
| 20260831160056 | 68 | 255 | 10.0 | 17.0 | 0.00 | 0.07 | 0.07 | 62 | 1013.6 |
| 20260831155054 | 68 | 276 | 8.0 | 17.0 | 0.00 | 0.07 | 0.07 | 61 | 1013.5 |
| 20260831154051 | 69 | 268 | 14.0 | 25.0 | 0.00 | 0.07 | 0.07 | 59 | 1013.2 |
| 20260831153048 | 69 | 255 | 13.0 | 27.0 | 0.00 | 0.07 | 0.07 | 60 | 1013.2 |
| 20260831152046 | 69 | 276 | 7.0 | 15.0 | 0.00 | 0.07 | 0.07 | 62 | 1012.9 |
| 20260831151043 | 69 | 246 | 6.0 | 14.0 | 0.00 | 0.07 | 0.07 | 64 | 1012.9 |
| 20260831150041 | 69 | 228 | 7.0 | 15.0 | 0.00 | 0.07 | 0.07 | 66 | 1012.7 |
| 20260831145038 | 70 | 263 | 6.0 | 15.0 | 0.00 | 0.07 | 0.07 | 65 | 1012.5 |
| 20260831144036 | 70 | 276 | 4.0 | 16.0 | 0.00 | 0.07 | 0.07 | 65 | 1012.5 |
| 20260831143033 | 69 | 265 | 6.0 | 15.0 | 0.00 | 0.07 | 0.07 | 66 | 1012.3 |
| 20260831142030 | 69 | 282 | 5.0 | 17.0 | 0.00 | 0.07 | 0.07 | 66 | 1012.3 |
| 20260831141028 | 68 | 252 | 6.0 | 16.0 | 0.00 | 0.07 | 0.07 | 67 | 1012.2 |
| 20260831140025 | 67 | 257 | 4.0 | 13.0 | 0.00 | 0.07 | 0.07 | 70 | 1012.2 |
| 20260831135022 | 64 | 234 | 6.0 | 11.0 | 0.01 | 0.07 | 0.07 | 73 | 1012.1 |
| 20260831134020 | 64 | 231 | 6.0 | 11.0 | 0.01 | 0.07 | 0.07 | 75 | 1012.2 |
| 20260831133017 | 63 | 266 | 6.0 | 11.0 | 0.01 | 0.07 | 0.07 | 75 | 1012.5 |
| 20260831132115 | 64 | 283 | 5.0 | 14.0 | 0.01 | 0.07 | 0.07 | 76 | 1012.6 |
| 20260831131112 | 64 | 262 | 7.0 | 17.0 | 0.01 | 0.07 | 0.07 | 81 | 1012.5 |
| 20260831130109 | 65 | 249 | 6.0 | 14.0 | 0.01 | 0.07 | 0.07 | 78 | 1012.1 |
| 20260831125107 | 66 | 301 | 7.0 | 18.0 | 0.00 | 0.06 | 0.06 | 73 | 1011.7 |
| 20260831124104 | 66 | 215 | 8.0 | 16.0 | 0.00 | 0.06 | 0.06 | 73 | 1011.7 |
| 20260831123102 | 67 | 255 | 10.0 | 17.0 | 0.00 | 0.06 | 0.06 | 70 | 1011.6 |
| 20260831122059 | 67 | 253 | 6.0 | 11.0 | 0.00 | 0.06 | 0.06 | 70 | 1011.7 |
| 20260831121056 | 66 | 241 | 8.0 | 14.0 | 0.02 | 0.06 | 0.06 | 72 | 1011.7 |
| 20260831120054 | 66 | 215 | 8.0 | 15.0 | 0.02 | 0.06 | 0.06 | 72 | 1011.7 |
| 20260831115051 | 66 | 244 | 8.0 | 14.0 | 0.02 | 0.06 | 0.06 | 73 | 1011.7 |
| 20260831114048 | 65 | 214 | 8.0 | 17.0 | 0.02 | 0.06 | 0.06 | 73 | 1011.5 |
| 20260831113046 | 65 | 255 | 9.0 | 18.0 | 0.02 | 0.06 | 0.06 | 77 | 1011.5 |
| 20260831112043 | 68 | 237 | 10.0 | 22.0 | 0.02 | 0.06 | 0.06 | 68 | 1011.3 |
| 20260831111041 | 69 | 234 | 11.0 | 21.0 | 0.00 | 0.04 | 0.04 | 64 | 1011.1 |
| 20260831110038 | 69 | 231 | 8.0 | 17.0 | 0.00 | 0.04 | 0.04 | 63 | 1011.1 |
| 20260831105036 | 70 | 260 | 10.0 | 18.0 | 0.00 | 0.04 | 0.04 | 61 | 1010.9 |
| 20260831104033 | 70 | 266 | 11.0 | 18.0 | 0.00 | 0.04 | 0.04 | 62 | 1010.8 |